Chlef Aboubakr Belkaid International Airport

DAOI · Chlef, 阿尔及利亚

罗盘
风向 的 风向 260° Ech Cheliff Airport 7/25
风: 2 kt, 1 beaufort

2 kt

改变
0 1.000 2.000 3.000 4.000 5.000
FEW 2.000 ft
METAR DAAG 280400Z 26002KT 9999 FEW020 06/04 Q1017

METAR Ech Cheliff Airport - DAOI/CFK

Ech Cheliff Airport是,阿尔及利亚中的中型机场。 该机场有2条跑道: 7/25 和 8/26. 该领域的国际民航组织标志是DAOI 它的国际航空运输协会代码是CFK.

这份报告是针对2022年11月28日 05:00, 当地时间在阿尔及尔胡阿里·布迈丁机场进行的。

机场观察

风向为260°,速度为2 kt。

可见度为10 km 或者更多。

有几云在2.000 ft的高度。 没有观察到天花板。

温度为6 °C,阵风为5 °C。 露点为4 °C,相对湿度为87%。 海平面上的气压为1017 hPa (QNH)。

白天

今天,太阳从07:44升起,在17:40降落。 这适用于Ech Cheliff Airport,世界夏令时可能有所不同。 当地时间与世界标准时间之间的时差为+1 小时。 当前,没有夏令时有效。

公司介绍

我们没有关于这个机场的公司信息。

体会

到Vliegles.nl去找飞行课程,跳伞和其他飞行体验。 浏览页面,了解Ech Cheliff Airport附近所有可用的活动。 你也可以使用搜索功能来寻找你所在地附近的特定飞行课程、跳伞或其他飞行体验。

跑道

Id 标题 侧风 逆风 侧风 %
7/25 066°-246° 2 kt 24 %
8/26 080°-260° 2 kt 0 %

逆风成分最大的方向会被突出显示,并用于横风计算。 这并不一定意味着这个方向在使用。

乌云

2.000 ft FEW 几云

温度 & 天气

温度 6 °C
露点 4 °C
相对湿度 87%
风寒 5 °C
Kp-index 3 (0-9)

白天

日出
07:38 (2:00)
中午
12:35
日落
17:32

小工具

你想在你的网站上有一个关于Ech Cheliff Airport的当前航空天气(METAR)的小部件吗?

显示HTML代码

我们和第三方通过cookies跟踪您在我们网站上的互联网行为。如果你继续,我们认为你同意我们的饼干政策